Time;durP1;ratioP1;P1;durP2;ratioP2;P2;SDS_P1;SDS_P2;PMS_P1;PMS_P2;Temp;Humidity;BMP_temperature;BMP_pressure;BME280_temperature;BME280_humidity;BME280_pressure;Samples;Min_cycle;Max_cycle;Signal;HPM_P1;HPM_P2
2023/12/02 00:00:26;;;;;;;25.83;15.13;;;;;;;-2.85;100.00;101105.38;6186087;23;20016;-84
2023/12/02 00:02:54;;;;;;;25.80;15.18;;;;;;;-2.83;100.00;101091.09;6245719;22;20008;-84
2023/12/02 00:05:20;;;;;;;26.75;15.65;;;;;;;-2.78;100.00;101094.41;6245431;22;20007;-82
2023/12/02 00:07:45;;;;;;;25.63;15.55;;;;;;;-2.91;100.00;101070.91;6245889;22;20001;-83
2023/12/02 00:10:11;;;;;;;27.33;15.68;;;;;;;-3.23;100.00;101039.00;6245394;22;20014;-82
2023/12/02 00:12:37;;;;;;;27.52;15.70;;;;;;;-2.76;100.00;101121.38;6268340;22;20012;-82
2023/12/02 00:15:03;;;;;;;26.35;15.40;;;;;;;-2.76;100.00;101108.72;6269380;22;20099;-81
2023/12/02 00:17:28;;;;;;;25.48;15.07;;;;;;;-3.26;100.00;101028.06;6245656;22;20000;-82
2023/12/02 00:19:53;;;;;;;27.63;16.17;;;;;;;-2.78;100.00;101104.53;6244848;22;20012;-82
2023/12/02 00:22:19;;;;;;;27.50;15.65;;;;;;;-2.81;100.00;101107.91;6245128;22;20003;-84
2023/12/02 00:24:45;;;;;;;25.42;16.00;;;;;;;-3.01;100.00;101074.31;6243450;23;20004;-80
2023/12/02 00:27:10;;;;;;;28.75;16.75;;;;;;;-2.75;100.00;101099.47;6244969;22;20004;-81
2023/12/02 00:29:35;;;;;;;26.58;16.05;;;;;;;-2.70;100.00;101097.75;6245054;22;20008;-83
2023/12/02 00:32:01;;;;;;;29.52;17.73;;;;;;;-2.67;100.00;101102.78;6245686;22;20000;-81
2023/12/02 00:34:26;;;;;;;26.08;16.27;;;;;;;-2.67;100.00;101106.16;6244841;22;20004;-84
2023/12/02 00:36:51;;;;;;;28.88;16.23;;;;;;;-2.63;100.00;101091.84;6245461;22;20004;-81
2023/12/02 00:39:17;;;;;;;26.48;16.02;;;;;;;-2.68;100.00;101093.53;6245282;22;20007;-83
2023/12/02 00:41:42;;;;;;;26.98;15.65;;;;;;;-2.54;100.00;101099.38;6245680;22;19996;-81
2023/12/02 00:44:07;;;;;;;26.02;15.45;;;;;;;-2.52;100.00;101099.38;6245342;22;20034;-82
2023/12/02 00:46:33;;;;;;;28.75;16.40;;;;;;;-2.51;100.00;101101.88;6245561;22;20067;-82
2023/12/02 00:48:58;;;;;;;27.33;16.05;;;;;;;-2.49;100.00;101100.19;6245050;22;20027;-81
2023/12/02 00:51:23;;;;;;;27.48;16.27;;;;;;;-2.51;100.00;101106.94;6245109;22;20011;-83
2023/12/02 00:53:49;;;;;;;26.88;16.63;;;;;;;-2.53;100.00;101098.53;6246320;22;20004;-84
2023/12/02 00:56:14;;;;;;;26.17;15.70;;;;;;;-2.88;100.00;101038.88;6244013;23;20008;-81
2023/12/02 00:58:40;;;;;;;27.90;16.48;;;;;;;-2.80;100.00;101048.94;6245481;22;20436;-83
2023/12/02 01:01:05;;;;;;;26.92;16.83;;;;;;;-2.47;100.00;101110.28;6244764;22;20008;-81
2023/12/02 01:03:31;;;;;;;27.35;15.93;;;;;;;-2.79;100.00;101048.09;6243967;23;20004;-84
2023/12/02 01:05:56;;;;;;;25.05;15.55;;;;;;;-2.50;100.00;101085.03;6246544;22;20099;-83
2023/12/02 01:08:21;;;;;;;27.60;17.08;;;;;;;-2.44;100.00;101095.97;6247391;22;20008;-81
2023/12/02 01:10:47;;;;;;;28.55;15.90;;;;;;;-2.70;100.00;101048.06;6247490;22;20074;-83
2023/12/02 01:13:12;;;;;;;28.80;16.90;;;;;;;-2.47;100.00;101090.91;6247347;22;20000;-82
2023/12/02 01:15:37;;;;;;;27.95;16.25;;;;;;;-2.53;100.00;101083.38;6246893;22;20406;-83
2023/12/02 01:18:03;;;;;;;28.45;16.92;;;;;;;-2.89;100.00;101038.88;6247393;22;20000;-85
2023/12/02 01:20:28;;;;;;;26.98;16.05;;;;;;;-2.66;100.00;101086.78;6246825;22;20421;-84
2023/12/02 01:22:54;;;;;;;28.30;15.73;;;;;;;-2.69;100.00;101092.69;6246848;22;20020;-84
2023/12/02 01:25:20;;;;;;;26.63;15.95;;;;;;;-2.79;100.00;101093.59;6247178;22;20050;-86
2023/12/02 01:27:45;;;;;;;26.52;16.10;;;;;;;-3.20;100.00;101040.69;6246691;22;20008;-83
2023/12/02 01:30:10;;;;;;;26.83;15.90;;;;;;;-2.99;100.00;101097.88;6248166;22;20445;-81
2023/12/02 01:32:36;;;;;;;25.25;14.80;;;;;;;-3.35;100.00;101055.88;6248538;22;20008;-82
2023/12/02 01:35:01;;;;;;;26.40;15.60;;;;;;;-3.50;100.00;101044.13;6247053;23;20005;-86
2023/12/02 01:45:12;;;;;;;25.08;15.10;;;;;;;-4.35;100.00;100918.94;6263552;22;20489;-83
2023/12/02 01:47:39;;;;;;;30.38;17.45;;;;;;;-3.47;100.00;101077.78;6246751;22;20012;-83
2023/12/02 01:50:05;;;;;;;27.95;16.42;;;;;;;-3.20;100.00;101119.81;6247102;22;20071;-84
2023/12/02 01:52:30;;;;;;;27.40;16.08;;;;;;;-3.48;100.00;101080.31;6247461;22;20441;-84
2023/12/02 01:54:56;;;;;;;25.55;15.38;;;;;;;-3.51;100.00;101093.78;6246691;22;20008;-84
2023/12/02 01:57:22;;;;;;;25.05;15.40;;;;;;;-3.34;100.00;101125.72;6246878;22;20085;-85
2023/12/02 01:59:54;;;;;;;27.00;16.02;;;;;;;-3.38;100.00;101137.50;6246931;22;20004;-84
2023/12/02 02:02:21;;;;;;;27.73;16.63;;;;;;;-3.58;100.00;101097.13;6246700;22;20000;-84
2023/12/02 02:04:48;;;;;;;27.33;16.90;;;;;;;-3.72;100.00;101076.13;6247254;22;20023;-83
2023/12/02 02:07:13;;;;;;;26.20;16.35;;;;;;;-3.36;100.00;101133.28;6246954;22;20010;-84
2023/12/02 02:09:48;;;;;;;27.50;16.73;;;;;;;-3.85;100.00;101047.53;6246838;22;20371;-83
2023/12/02 02:12:15;;;;;;;27.08;16.08;;;;;;;-3.80;100.00;101045.00;6246700;22;20008;-84
2023/12/02 02:14:41;;;;;;;27.80;16.02;;;;;;;-3.49;100.00;101098.81;6246348;22;20011;-84
2023/12/02 02:17:09;;;;;;;26.25;16.27;;;;;;;-3.26;100.00;101129.06;6246127;22;20000;-84
2023/12/02 02:19:35;;;;;;;27.25;15.98;;;;;;;-3.54;100.00;101080.28;6246059;22;20011;-84
2023/12/02 02:24:41;;;;;;;26.25;16.45;;;;;;;-5.00;100.00;100839.19;6248960;22;20028;-84
2023/12/02 02:27:09;;;;;;;27.92;16.90;;;;;;;-5.02;100.00;100841.66;6246475;22;20007;-84
2023/12/02 02:29:35;;;;;;;28.67;16.23;;;;;;;-3.87;100.00;101016.41;6246911;22;20004;-83
2023/12/02 02:32:09;;;;;;;28.38;16.58;;;;;;;-4.82;100.00;100868.53;6246896;22;20008;-84
2023/12/02 02:34:35;;;;;;;28.98;17.10;;;;;;;-3.58;100.00;101055.91;6246561;22;20513;-82
2023/12/02 02:37:31;;;;;;;26.27;16.88;;;;;;;-3.15;100.00;101124.84;6247409;22;20000;-84
2023/12/02 02:43:43;;;;;;;29.50;17.60;;;;;;;-3.14;100.00;101128.25;6249113;23;20428;-83
2023/12/02 02:46:50;;;;;;;29.42;17.13;;;;;;;-3.17;100.00;101134.13;6245488;23;20000;-83
2023/12/02 02:56:14;;;;;;;29.75;17.55;;;;;;;-3.06;100.00;101144.19;6247589;23;20452;-85
2023/12/02 02:58:51;;;;;;;30.67;18.00;;;;;;;-4.77;100.00;100869.41;6246480;23;20050;-83
2023/12/02 03:01:29;;;;;;;31.58;18.73;;;;;;;-3.47;100.00;101077.78;6247817;22;20333;-83
2023/12/02 04:37:58;;;;;;;29.65;17.70;;;;;;;-2.65;100.00;101189.59;6252259;22;20031;-84
2023/12/02 04:40:30;;;;;;;28.80;17.23;;;;;;;-4.21;100.00;100946.69;6216235;23;20186;-84
2023/12/02 04:43:10;;;;;;;28.00;16.95;;;;;;;-2.63;100.00;101183.69;6217415;23;20035;-84
2023/12/02 04:45:35;;;;;;;28.15;16.67;;;;;;;-3.20;100.00;101102.13;6217396;23;20051;-83
2023/12/02 04:48:57;;;;;;;31.70;19.25;;;;;;;-2.64;100.00;101187.06;6216667;23;20005;-84
2023/12/02 04:51:41;;;;;;;29.48;17.65;;;;;;;-2.63;100.00;101198.84;6217214;23;20334;-82
2023/12/02 04:57:31;;;;;;;28.65;17.55;;;;;;;-2.64;100.00;101199.69;6248487;22;20020;-83
2023/12/02 05:00:29;;;;;;;28.20;16.75;;;;;;;-2.63;100.00;101193.81;6247039;23;20016;-83
2023/12/02 05:03:17;;;;;;;28.55;16.90;;;;;;;-2.62;100.00;101207.28;6200440;23;20020;-83
2023/12/02 05:08:32;;;;;;;27.55;17.63;;;;;;;-4.28;100.00;100933.22;6256223;22;20024;-84
2023/12/02 05:11:07;;;;;;;28.73;17.33;;;;;;;-3.73;100.00;101025.66;6247146;23;20008;-84
2023/12/02 05:16:04;;;;;;;24.97;15.90;;;;;;;-4.28;100.00;100948.34;6248895;22;20020;-84
2023/12/02 05:18:32;;;;;;;26.08;16.58;;;;;;;-4.27;100.00;100946.66;6246878;23;20697;-84
2023/12/02 05:31:19;;;;;;;26.30;15.63;;;;;;;-4.28;100.00;100940.78;6250185;22;20035;-84
2023/12/02 05:34:28;;;;;;;24.23;16.05;;;;;;;-2.63;100.00;101201.38;6218350;23;20008;-84
2023/12/02 05:38:17;;;;;;;26.20;15.45;;;;;;;-2.64;100.00;101230.03;6246970;23;20008;-83
2023/12/02 05:41:14;;;;;;;26.50;16.00;;;;;;;-2.66;100.00;101231.72;6246955;23;20054;-84
2023/12/02 05:50:29;;;;;;;27.98;17.33;;;;;;;-3.57;100.00;101144.25;6246762;23;20471;-84
2023/12/02 05:58:07;;;;;;;28.75;16.85;;;;;;;-4.56;100.00;100972.69;6254385;22;20082;-85
2023/12/02 06:00:35;;;;;;;27.15;16.42;;;;;;;-4.06;100.00;101045.84;6219584;23;20008;-83
2023/12/02 06:03:02;;;;;;;28.85;16.75;;;;;;;-3.52;100.00;101122.38;6246079;23;20008;-82
2023/12/02 06:09:03;;;;;;;32.30;19.23;;;;;;;-2.81;100.00;101241.03;6249511;22;20028;-84
2023/12/02 06:24:18;;;;;;;29.88;17.77;;;;;;;-4.30;100.00;100989.53;6277374;22;20019;-82
2023/12/02 06:30:42;;;;;;;27.35;17.20;;;;;;;-2.66;100.00;101256.16;6276880;22;20089;-80
2023/12/02 06:33:20;;;;;;;29.77;17.50;;;;;;;-4.29;100.00;100993.75;6277319;22;20007;-82
2023/12/02 06:47:37;;;;;;;32.13;19.02;;;;;;;-2.57;100.00;101267.94;6256923;22;20024;-83
2023/12/02 06:50:19;;;;;;;35.10;20.08;;;;;;;-2.59;100.00;101278.03;6263292;22;20034;-82
2023/12/02 06:52:48;;;;;;;30.92;18.98;;;;;;;-3.20;100.00;101185.47;6242467;23;20046;-84
2023/12/02 06:55:13;;;;;;;34.85;20.00;;;;;;;-4.25;100.00;101015.56;6245936;23;20018;-82
2023/12/02 06:57:42;;;;;;;29.70;18.02;;;;;;;-3.19;100.00;101183.78;6245697;23;20428;-83
2023/12/02 07:00:22;;;;;;;29.77;16.92;;;;;;;-3.20;100.00;101189.69;6246429;23;20024;-83
2023/12/02 07:02:48;;;;;;;30.03;17.70;;;;;;;-4.18;100.00;101032.41;6247892;22;20007;-81
2023/12/02 07:05:13;;;;;;;29.85;17.60;;;;;;;-3.81;100.00;101091.28;6246229;23;20008;-82
2023/12/02 07:11:39;;;;;;;28.38;17.17;;;;;;;-2.49;100.00;101309.22;6245796;23;20507;-81
2023/12/02 07:14:10;;;;;;;29.48;17.92;;;;;;;-2.50;100.00;101303.31;6246344;23;20307;-82
2023/12/02 07:17:13;;;;;;;27.60;16.65;;;;;;;-2.48;100.00;101308.38;6246416;23;20004;-82
2023/12/02 07:30:18;;;;;;;30.33;18.52;;;;;;;-2.53;100.00;101332.84;6246218;23;20011;-82
2023/12/02 07:32:49;;;;;;;30.67;18.73;;;;;;;-4.25;100.00;101063.47;6245788;23;20008;-84
2023/12/02 07:35:17;;;;;;;;;;;;;;;-2.73;100.00;101323.56;6247110;23;20007;-79
2023/12/02 07:47:12;;;;;;;30.60;18.45;;;;;;;-3.18;100.00;101350.50;6245796;23;20039;-84
2023/12/02 07:56:17;;;;;;;34.22;19.80;;;;;;;-5.04;100.00;101062.41;6252631;22;20032;-83
2023/12/02 08:05:47;;;;;;;33.72;20.67;;;;;;;-3.44;100.00;101356.31;6209227;23;20074;-83
2023/12/02 08:19:01;;;;;;;40.97;23.02;;;;;;;-5.04;100.00;101090.09;6154687;23;20020;-82
2023/12/02 08:22:19;;;;;;;42.80;23.00;;;;;;;-3.09;100.00;101382.50;6152312;23;20009;-83
2023/12/02 10:10:44;;;;;;;34.15;20.65;;;;;;;-0.80;100.00;101452.88;6264696;22;20095;-80
2023/12/02 10:23:13;;;;;;;36.97;20.73;;;;;;;-0.64;100.00;101466.31;6250560;22;20107;-78
2023/12/02 10:25:47;;;;;;;34.05;20.77;;;;;;;-0.51;100.00;101460.28;6246175;23;20016;-78
2023/12/02 10:28:37;;;;;;;35.85;21.10;;;;;;;-0.79;100.00;101387.78;6246065;23;19996;-80
2023/12/02 11:40:52;;;;;;;34.40;19.30;;;;;;;0.74;100.00;101458.22;6257549;22;20270;-84
2023/12/02 11:44:00;;;;;;;34.72;20.45;;;;;;;0.71;100.00;101458.28;6185546;23;20093;-83
2023/12/02 12:23:43;;;;;;;37.58;22.30;;;;;;;-0.90;100.00;101372.66;6242130;22;20458;-87
2023/12/02 12:42:16;;;;;;;39.47;21.77;;;;;;;0.02;100.00;101475.94;6252900;22;20022;-89
2023/12/02 14:18:06;;;;;;;36.90;22.50;;;;;;;0.53;100.00;101526.25;6277085;22;20034;-82
2023/12/02 14:32:44;;;;;;;40.63;22.63;;;;;;;0.16;100.00;101540.97;6246251;23;20054;-82
2023/12/02 14:42:12;;;;;;;39.58;22.90;;;;;;;0.13;100.00;101555.41;6243426;22;20103;-82
2023/12/02 14:53:19;;;;;;;39.35;24.00;;;;;;;-1.64;100.00;101301.34;6264341;22;20031;-82
2023/12/02 16:08:22;;;;;;;48.00;28.85;;;;;;;-1.65;100.00;101418.66;6276174;22;20026;-81
2023/12/02 16:32:24;;;;;;;46.50;28.52;;;;;;;-0.61;100.00;101613.41;6244869;23;20142;-80
2023/12/02 16:35:15;;;;;;;47.53;27.27;;;;;;;-0.50;100.00;101634.47;6244768;22;20079;-80
2023/12/02 16:37:51;;;;;;;47.15;27.10;;;;;;;-0.43;100.00;101637.84;6243812;23;20016;-79
2023/12/02 16:40:28;;;;;;;45.55;27.23;;;;;;;-1.64;100.00;101439.75;6244948;22;20004;-79
2023/12/02 16:42:54;;;;;;;45.08;26.90;;;;;;;-0.25;100.00;101670.75;6244877;22;20001;-78
2023/12/02 16:45:24;;;;;;;42.15;26.55;;;;;;;-1.66;100.00;101449.91;6245131;22;20000;-80
2023/12/02 16:47:55;;;;;;;44.08;25.88;;;;;;;-0.98;100.00;101570.47;6245490;22;20008;-79
2023/12/02 16:50:52;;;;;;;46.00;26.58;;;;;;;-0.16;100.00;101713.03;6192122;23;20032;-80
2023/12/02 16:53:45;;;;;;;44.38;25.92;;;;;;;-0.20;100.00;101707.09;6245057;23;20008;-80
2023/12/02 16:56:42;;;;;;;42.55;25.95;;;;;;;-0.22;100.00;101710.50;6245244;23;20036;-81
2023/12/02 16:59:25;;;;;;;44.92;25.52;;;;;;;-0.24;100.00;101724.88;6242874;23;20046;-78
2023/12/02 17:01:51;;;;;;;43.17;26.23;;;;;;;-0.52;100.00;101681.84;6245885;23;20016;-79
2023/12/02 17:04:17;;;;;;;45.50;26.30;;;;;;;-0.63;100.00;101665.84;6243017;23;20103;-80
2023/12/02 17:06:42;;;;;;;42.33;26.45;;;;;;;-0.58;100.00;101684.44;6244645;22;20011;-81
2023/12/02 17:12:09;;;;;;;43.95;26.17;;;;;;;-0.30;100.00;101734.19;6244117;22;20099;-80
2023/12/02 17:14:51;;;;;;;42.78;25.73;;;;;;;-0.84;100.00;101649.00;6244136;23;20547;-81
2023/12/02 17:17:57;;;;;;;43.58;26.17;;;;;;;-0.30;100.00;101740.97;6245294;22;20004;-83
2023/12/02 17:23:50;;;;;;;42.55;26.38;;;;;;;-0.44;100.00;101728.34;6244880;22;20129;-83
2023/12/02 17:26:26;;;;;;;43.30;26.60;;;;;;;-1.67;100.00;101519.13;6244419;22;20047;-84
2023/12/02 17:28:51;;;;;;;42.63;26.55;;;;;;;-0.79;100.00;101662.50;6245084;22;20322;-84
2023/12/02 17:31:54;;;;;;;45.25;25.67;;;;;;;-0.23;100.00;101751.97;6245190;22;20016;-85
2023/12/02 17:34:21;;;;;;;42.60;26.80;;;;;;;-0.25;100.00;101758.75;6243890;23;20012;-83
2023/12/02 17:36:50;;;;;;;41.35;25.67;;;;;;;-1.93;100.00;101481.16;6244822;22;20000;-85
2023/12/02 17:39:17;;;;;;;44.22;25.25;;;;;;;-0.36;100.00;101730.88;6244602;23;20437;-84
2023/12/02 17:41:42;;;;;;;45.50;26.80;;;;;;;-0.82;100.00;101662.50;6243611;22;20018;-84
2023/12/02 17:44:10;;;;;;;41.92;26.48;;;;;;;-0.37;100.00;101732.56;6242590;23;20396;-83
2023/12/02 17:46:54;;;;;;;42.80;25.90;;;;;;;-0.20;100.00;101762.09;6245283;22;20075;-84
2023/12/02 17:49:20;;;;;;;44.95;26.35;;;;;;;-0.31;100.00;101745.22;6246907;22;20011;-83
2023/12/02 17:51:48;;;;;;;41.83;25.15;;;;;;;-1.69;100.00;101509.81;6246420;22;20333;-82
2023/12/02 17:54:31;;;;;;;43.00;25.42;;;;;;;-1.87;100.00;101485.38;6244772;23;20015;-84
2023/12/02 17:56:57;;;;;;;42.42;25.92;;;;;;;-0.79;100.00;101661.66;6246695;22;20360;-82
2023/12/02 18:00:12;;;;;;;43.05;26.17;;;;;;;-1.72;100.00;101528.41;6246752;22;20067;-81
2023/12/02 18:02:43;;;;;;;43.05;25.45;;;;;;;-1.00;100.00;101676.06;6246579;22;20094;-83
2023/12/02 18:05:08;;;;;;;41.70;24.90;;;;;;;-1.10;100.00;101674.38;6246620;22;20000;-83
2023/12/02 18:07:34;;;;;;;46.13;26.33;;;;;;;-0.71;100.00;101758.84;6246557;22;20326;-80
2023/12/02 18:09:59;;;;;;;45.72;28.17;;;;;;;-0.77;100.00;101763.94;6158635;23;20009;-81
2023/12/02 18:12:25;;;;;;;45.75;27.13;;;;;;;-1.08;100.00;101718.34;6183291;23;20005;-82
2023/12/02 18:14:51;;;;;;;48.85;27.17;;;;;;;-1.01;100.00;101734.38;6183539;23;20005;-81
2023/12/02 18:17:17;;;;;;;43.15;26.48;;;;;;;-0.86;100.00;101764.78;6183182;23;20010;-81
2023/12/02 18:19:42;;;;;;;45.63;26.38;;;;;;;-0.88;100.00;101769.88;6158474;23;20020;-81
2023/12/02 18:22:14;;;;;;;48.65;27.80;;;;;;;-0.89;100.00;101774.91;6182990;23;20339;-83
2023/12/02 18:24:41;;;;;;;44.97;26.70;;;;;;;-1.27;100.00;101714.13;6183302;23;20009;-80
2023/12/02 18:27:07;;;;;;;46.22;28.88;;;;;;;-0.96;100.00;101768.19;6182947;23;20009;-82
2023/12/02 18:29:35;;;;;;;45.72;27.85;;;;;;;-1.05;100.00;101742.84;6183268;23;20354;-83
2023/12/02 18:32:00;;;;;;;58.15;32.67;;;;;;;-0.97;100.00;101751.28;6183364;23;20009;-82
2023/12/02 18:34:26;;;;;;;44.88;26.95;;;;;;;-1.13;100.00;101719.19;6183296;23;20075;-83
2023/12/02 18:36:52;;;;;;;43.60;26.88;;;;;;;-0.78;100.00;101762.25;6183380;23;20013;-81
2023/12/02 18:39:18;;;;;;;45.38;26.75;;;;;;;-0.77;100.00;101763.94;6183041;23;20016;-82
2023/12/02 18:41:47;;;;;;;47.25;28.00;;;;;;;-0.71;100.00;101769.00;6234141;23;20015;-83
2023/12/02 18:44:12;;;;;;;48.47;26.35;;;;;;;-0.99;100.00;101708.16;6269480;22;20039;-83
2023/12/02 18:46:38;;;;;;;43.85;26.05;;;;;;;-0.98;100.00;101714.94;6246201;22;20058;-82
2023/12/02 18:49:03;;;;;;;42.65;26.58;;;;;;;-0.84;100.00;101737.75;6246430;22;20004;-80
2023/12/02 18:51:33;;;;;;;45.13;27.33;;;;;;;-0.62;100.00;101764.75;6246585;22;20008;-84
2023/12/02 18:53:58;;;;;;;44.38;25.65;;;;;;;-0.80;100.00;101739.41;6246105;22;20299;-84
2023/12/02 18:56:24;;;;;;;46.03;26.52;;;;;;;-0.68;100.00;101746.19;6244635;23;20010;-83
2023/12/02 18:58:50;;;;;;;48.63;26.88;;;;;;;-0.57;100.00;101767.28;6244130;23;20004;-82
2023/12/02 19:03:40;;;;;;;42.70;25.00;;;;;;;-2.14;100.00;101507.34;6245410;22;20024;-82
2023/12/02 19:06:21;;;;;;;42.42;26.30;;;;;;;-2.12;100.00;101509.84;6245877;22;20678;-83
2023/12/02 19:08:59;;;;;;;42.47;25.58;;;;;;;-1.54;100.00;101614.47;6244515;22;20020;-83
2023/12/02 19:11:24;;;;;;;46.22;27.35;;;;;;;-1.03;100.00;101709.03;6244527;23;20512;-83
2023/12/02 19:13:55;;;;;;;45.60;26.50;;;;;;;-0.46;100.00;101790.94;6246098;22;20046;-83
2023/12/02 19:16:27;;;;;;;45.00;26.67;;;;;;;-0.71;100.00;101748.69;6246245;22;20005;-83
2023/12/02 19:18:57;;;;;;;43.17;26.88;;;;;;;-1.19;100.00;101670.16;6246087;22;20432;-83
2023/12/02 19:21:32;;;;;;;42.40;26.20;;;;;;;-1.06;100.00;101698.91;6244989;22;20047;-83
2023/12/02 19:24:04;;;;;;;42.28;25.08;;;;;;;-0.91;100.00;101711.53;6213425;23;20004;-83
2023/12/02 19:26:38;;;;;;;43.80;26.30;;;;;;;-0.42;100.00;101794.31;6215685;23;20334;-82
2023/12/02 19:29:17;;;;;;;41.22;25.48;;;;;;;-1.52;100.00;101609.41;6215785;23;20005;-83
2023/12/02 19:35:16;;;;;;;42.60;25.50;;;;;;;-0.96;100.00;101712.41;6215244;23;20335;-82
2023/12/02 19:38:23;;;;;;;41.72;25.20;;;;;;;-0.39;100.00;101797.69;6213229;23;20005;-83
2023/12/02 19:40:48;;;;;;;42.03;26.08;;;;;;;-1.56;100.00;101602.66;6215178;23;20001;-82
2023/12/02 19:43:20;;;;;;;47.85;27.02;;;;;;;-0.96;100.00;101705.66;6214944;23;20063;-83
2023/12/02 20:27:57;;;;;;;45.67;27.05;;;;;;;-0.78;100.00;101844.25;6251774;22;20058;-84
2023/12/02 20:30:25;;;;;;;42.22;26.05;;;;;;;-2.49;100.00;101569.66;6184820;23;20023;-83
2023/12/02 20:32:58;;;;;;;41.22;25.63;;;;;;;-1.65;100.00;101707.34;6183344;23;20020;-81
2023/12/02 20:38:55;;;;;;;45.78;26.40;;;;;;;-0.89;100.00;101844.22;6184877;23;20402;-81
2023/12/02 20:41:21;;;;;;;43.17;26.25;;;;;;;-1.70;100.00;101714.06;6184252;23;20020;-83
2023/12/02 20:43:49;;;;;;;46.47;27.67;;;;;;;-1.54;100.00;101732.69;6234794;22;20032;-83
2023/12/02 20:46:25;;;;;;;43.53;26.33;;;;;;;-1.49;100.00;101741.97;6243763;22;20150;-81
2023/12/02 20:49:34;;;;;;;43.75;26.10;;;;;;;-1.96;100.00;101638.09;6245337;23;20008;-83
2023/12/02 20:52:00;;;;;;;47.60;27.17;;;;;;;-0.82;100.00;101821.41;6225172;23;20369;-82
2023/12/02 20:54:25;;;;;;;44.58;26.77;;;;;;;-1.92;100.00;101642.31;6244779;22;20004;-82
2023/12/02 20:56:52;;;;;;;43.78;25.63;;;;;;;-0.73;100.00;101827.31;6245281;22;20000;-84
2023/12/02 20:59:31;;;;;;;44.90;25.98;;;;;;;-1.19;100.00;101750.41;6244283;22;20004;-83
2023/12/02 21:01:56;;;;;;;44.03;26.08;;;;;;;-0.77;100.00;101818.03;6245132;22;20004;-83
2023/12/02 21:04:37;;;;;;;42.47;24.20;;;;;;;-1.68;100.00;101660.88;6245074;22;20054;-84
2023/12/02 21:09:56;;;;;;;44.95;27.17;;;;;;;-1.49;100.00;101718.31;6244747;23;20393;-83
2023/12/02 21:12:27;;;;;;;45.38;26.58;;;;;;;-2.32;100.00;101619.47;6245135;22;20008;-84
2023/12/02 21:15:03;;;;;;;43.13;25.98;;;;;;;-2.56;100.00;101591.56;6245344;22;20058;-82
2023/12/02 21:17:29;;;;;;;46.55;27.60;;;;;;;-1.64;100.00;101759.69;6245411;22;20000;-83
2023/12/02 21:19:57;;;;;;;50.08;28.38;;;;;;;-1.25;100.00;101829.00;6245626;22;20001;-81
2023/12/02 22:23:59;;;;;;;58.97;35.03;;;;;;;-0.98;100.00;101884.81;6271209;22;20038;-81
2023/12/02 22:26:49;;;;;;;67.18;37.15;;;;;;;-0.95;100.00;101889.03;6246147;23;20012;-82
2023/12/02 22:29:42;;;;;;;64.80;36.22;;;;;;;-0.95;100.00;101886.50;6244506;23;20085;-81
2023/12/02 22:35:12;;;;;;;74.38;41.85;;;;;;;-0.97;100.00;101894.09;6245543;23;20019;-81
2023/12/02 22:37:42;;;;;;;68.82;35.55;;;;;;;-1.01;100.00;101896.63;6246201;23;20034;-80
2023/12/02 22:40:21;;;;;;;66.03;35.22;;;;;;;-1.13;100.00;101879.69;6246205;23;20015;-82
2023/12/02 22:42:46;;;;;;;65.47;35.33;;;;;;;-1.00;100.00;101895.75;6245538;23;20011;-84
2023/12/02 22:52:11;;;;;;;59.92;32.47;;;;;;;-2.18;100.00;101713.09;6152828;23;20020;-82
2023/12/02 22:54:41;;;;;;;65.40;32.80;;;;;;;-1.04;100.00;101892.38;6153186;23;20084;-83
2023/12/02 22:57:15;;;;;;;68.38;33.00;;;;;;;-1.02;100.00;101894.94;6152946;23;20005;-85
2023/12/02 22:59:40;;;;;;;68.68;33.15;;;;;;;-1.20;100.00;101862.78;6153071;23;20040;-83
2023/12/02 23:02:10;;;;;;;65.70;32.85;;;;;;;-0.90;100.00;101916.06;6153061;23;20013;-84
2023/12/02 23:04:38;;;;;;;71.18;33.38;;;;;;;-1.21;100.00;101861.09;6152894;23;20312;-83
2023/12/02 23:07:41;;;;;;;68.18;31.33;;;;;;;-0.86;100.00;101916.94;6152642;23;20005;-83
2023/12/02 23:10:29;;;;;;;69.18;32.40;;;;;;;-0.82;100.00;101922.84;6153124;23;20041;-84
2023/12/02 23:12:56;;;;;;;69.97;32.55;;;;;;;-1.07;100.00;101879.72;6152809;23;20009;-84
2023/12/02 23:15:35;;;;;;;70.32;33.33;;;;;;;-1.03;100.00;101880.56;6153023;23;20080;-84
2023/12/02 23:18:05;;;;;;;68.95;33.55;;;;;;;-0.98;100.00;101886.50;6152943;23;20408;-83
2023/12/02 23:20:34;;;;;;;72.22;32.95;;;;;;;-0.72;100.00;101933.00;6126915;23;20012;-84
2023/12/02 23:23:03;;;;;;;70.22;30.65;;;;;;;-0.77;100.00;101918.63;6153010;23;20084;-85
2023/12/02 23:25:28;;;;;;;71.18;33.80;;;;;;;-0.67;100.00;101925.41;6152865;23;20016;-84
2023/12/02 23:27:57;;;;;;;70.22;32.38;;;;;;;-0.66;100.00;101929.63;6217900;23;20078;-83
2023/12/02 23:30:22;;;;;;;71.00;32.05;;;;;;;-1.00;100.00;101868.72;6245435;22;20000;-81
2023/12/02 23:32:48;;;;;;;66.40;31.17;;;;;;;-0.60;100.00;101930.47;6245610;22;20414;-81
2023/12/02 23:35:21;;;;;;;70.35;30.33;;;;;;;-0.66;100.00;101914.41;6245287;22;20005;-81
2023/12/02 23:37:47;;;;;;;71.78;31.00;;;;;;;-0.75;100.00;101900.03;6245249;22;20374;-81
2023/12/02 23:40:24;;;;;;;67.43;30.23;;;;;;;-0.69;100.00;101899.19;6244990;22;20004;-81
